Aérodrome :
LOGIN :

S'inscrire | Disclaimer

   EN    FR    IT 

 










Légende :    VFR   VFR Marginal   IFR   IFR Intensif   IFR Très Intensif
Visi : 
Plafond : 
>= 8 km
>= 3000ft
5 à 8 km
1000 à 3000 ft
1500m à 5 km
500 à 1000 ft
800 à 1500m
200 à 500 ft
< 800m
< 200 ft
Symboles :   Orages  Brouillard  Fortes neiges  Fortes précipitations  Vent > 20 kt
SIGMETs :   Divers  Orages  Givrage  Turbulence  Onde Orograph.  Cendres Volcan.







- Altitude de l'aérodrome : 82 ft
- Code IATA : QIE
- Voir les cartes d'approche


LFMI - Istres

DERNIER METAR :
  • 260330Z AUTO 29007KT 6000 RA BKN007/// BKN030/// BKN037/// ///TCU 13/12 Q1005 TEMPO 2500 TSRA BKN015 SCT030CB BKN040

METARs EXPIRÉS :
  • 260300Z AUTO 36007KT 9999 -RA SCT006 OVC072 14/13 Q1004 TEMPO 2500 TSRA BKN015 SCT030CB BKN040
  • 260230Z AUTO 30005KT 9999 BKN005 BKN010 BKN018 14/14 Q1004 TEMPO 2500 TSRA BKN015 SCT030CB BKN040
  • 260200Z AUTO 24005KT 8000 -RA BKN005/// BKN056/// OVC088/// ///CB 15/14 Q1004 TEMPO 13015G25KT 2500 TSRA BKN010 SCT030CB BKN045
  • 260130Z AUTO 19006KT 7000 -RA BKN008/// BKN014/// BKN023/// ///TCU 15/14 Q1004 TEMPO 13015G25KT 2500 TSRA BKN010 SCT030CB BKN045

TAF AMD TAF LFMI
Valide du 26 à 03h jusqu'au 27 à 03h UTC


260343Z 2603/2703 19010KT 9999 SCT020 BKN080
TEMPO 2603/2609 5000 RA BKN010 BKN045
PROB30
TEMPO 2603/2606 VRB05KT 2500 TSRA BKN005 SCT030CB BKN040
TEMPO 2609/2615 30010KT -RA BKN040
Pas de NOTAMs connus pour ce terrain.



MET'MAP, la Météo Aéronautique d'un coup d'oeil ! - Copyright ORBIFLY Décembre 2007 - Disclaimer

ORBIFLY MET'MAP TEAM :

Programmation & Développement : Alexandra Zaïnal
Conception & Développement : Baudouin d'Aumeries
Co-Programmation & Développement : Marc-Olivier Méhu
Soutien technique & logistique : Manuel Goepfert

Contact : metmap@orbifly.com




SOURCES & CREDITS :

   NOAA